EYVI/VNO METAR and TAF weather

Enter ICAO airport designator
Station Type Date Time Source
EYVI METAR 2022/05/24 12:20 UTC NOAA

EYVI 241220Z 18006KT 150V230 CAVOK 20/03 Q1013 NOSIG


Station Type Date Time Source
EYVI Decoded METAR 2022/05/24 12:20 UTC NOAA

Vilnius, Lithuania (EYVI) 54-38N 025-06E 156M
May 24, 2022 - 08:20 AM EDT / 2022.05.24 1220 UTC
Wind: from the S (180 degrees) at 7 MPH (6 KT) (direction variable):0
Visibility: greater than 7 mile(s):0
Temperature: 68 F (20 C)
Dew Point: 37 F (3 C)
Relative Humidity: 32%
Pressure (altimeter): 29.91 in. Hg (1013 hPa)
ob: EYVI 241220Z 18006KT 150V230 CAVOK 20/03 Q1013 NOSIG
cycle: 12

Station Type Date Time Source
EYVI TAF 2022/05/24 12:03 UTC NOAA

TAF EYVI 241100Z 2412/2512 VRB05KT CAVOK

Example: see airport list